createdAt,value
2018-11-03T00:01:40.437Z,16.93
2018-11-03T00:04:09.317Z,15.63
2018-11-03T00:06:40.281Z,15.47
2018-11-03T00:09:10.390Z,17.53
2018-11-03T00:11:39.413Z,15.37
2018-11-03T00:14:16.824Z,14.57
2018-11-03T00:16:45.368Z,14.70
2018-11-03T00:19:13.910Z,14.27
2018-11-03T00:21:42.537Z,13.93
2018-11-03T00:24:11.084Z,15.57
2018-11-03T00:26:39.558Z,14.63
2018-11-03T00:29:08.441Z,13.93
2018-11-03T00:31:36.881Z,14.37
2018-11-03T00:34:06.903Z,13.53
2018-11-03T00:36:35.362Z,12.97
2018-11-03T00:39:06.308Z,13.43
2018-11-03T00:41:34.838Z,14.40
2018-11-03T00:44:03.332Z,14.60
2018-11-03T00:46:31.831Z,14.53
2018-11-03T00:49:00.293Z,14.40
2018-11-03T00:51:28.806Z,15.33
2018-11-03T00:53:57.265Z,17.23
2018-11-03T00:56:28.435Z,15.70
2018-11-03T00:58:57.005Z,15.67
2018-11-03T01:01:25.466Z,15.23
2018-11-03T01:03:53.931Z,14.47
2018-11-03T01:06:22.588Z,14.50
2018-11-03T01:08:51.091Z,14.03
2018-11-03T01:11:19.593Z,14.93
2018-11-03T01:13:48.057Z,15.10
2018-11-03T01:16:16.536Z,15.57
2018-11-03T01:18:44.973Z,15.90
2018-11-03T01:21:13.430Z,15.00
2018-11-03T01:23:41.920Z,14.27
2018-11-03T01:26:10.574Z,14.73
2018-11-03T01:28:41.344Z,15.73
2018-11-03T01:31:10.706Z,15.47
2018-11-03T01:33:39.161Z,15.03
2018-11-03T01:36:07.825Z,17.33
2018-11-03T01:38:36.495Z,16.80
2018-11-03T01:41:04.975Z,17.00
2018-11-03T01:43:33.426Z,16.33
2018-11-03T01:46:01.883Z,16.97
2018-11-03T01:48:30.328Z,16.10
2018-11-03T01:50:58.799Z,15.53
2018-11-03T01:53:27.270Z,14.87
2018-11-03T01:55:55.730Z,15.70
2018-11-03T01:58:24.177Z,14.90
2018-11-03T02:00:52.634Z,15.83
2018-11-03T02:03:21.077Z,17.07
2018-11-03T02:05:49.555Z,15.50
2018-11-03T02:08:17.983Z,15.07
2018-11-03T02:10:46.658Z,14.37
2018-11-03T02:13:15.143Z,16.63
2018-11-03T02:15:43.581Z,14.93
2018-11-03T02:18:12.046Z,16.03
2018-11-03T02:20:40.474Z,16.20
2018-11-03T02:23:08.926Z,16.90
2018-11-03T02:25:37.374Z,16.43
2018-11-03T02:28:06.594Z,16.13
2018-11-03T02:30:35.030Z,15.70
2018-11-03T02:33:03.506Z,15.53
2018-11-03T02:35:31.925Z,17.20
2018-11-03T02:38:00.379Z,16.70
2018-11-03T02:40:28.824Z,18.43
2018-11-03T02:42:57.445Z,17.80
2018-11-03T02:45:25.918Z,15.40
2018-11-03T02:47:54.370Z,17.17
2018-11-03T02:50:22.825Z,17.63
2018-11-03T02:52:51.292Z,16.17
2018-11-03T02:55:19.904Z,15.97
2018-11-03T02:57:48.370Z,16.83
2018-11-03T03:00:16.833Z,15.23
2018-11-03T03:02:45.506Z,15.47
2018-11-03T03:05:14.127Z,16.93
2018-11-03T03:07:42.600Z,16.93
2018-11-03T03:10:12.350Z,17.67
2018-11-03T03:12:40.988Z,16.40
2018-11-03T03:15:11.335Z,16.50
2018-11-03T03:17:40.107Z,17.93
2018-11-03T03:20:10.263Z,16.60
2018-11-03T03:22:38.693Z,18.60
2018-11-03T03:25:08.232Z,17.83
2018-11-03T03:27:36.796Z,17.40
2018-11-03T03:30:05.578Z,17.80
2018-11-03T03:32:34.042Z,17.20
2018-11-03T03:35:02.526Z,18.10
2018-11-03T03:37:30.992Z,17.67
2018-11-03T03:39:59.458Z,18.00
2018-11-03T03:42:28.446Z,15.67
2018-11-03T03:44:57.126Z,15.60
2018-11-03T03:47:25.926Z,16.43
2018-11-03T03:49:54.385Z,15.67
2018-11-03T03:52:22.831Z,18.50
2018-11-03T03:54:51.314Z,18.00
2018-11-03T03:57:20.125Z,17.17
2018-11-03T03:59:48.612Z,17.13
2018-11-03T04:02:17.050Z,17.47
2018-11-03T04:04:45.503Z,17.40
2018-11-03T04:07:13.966Z,16.97
2018-11-03T04:09:42.638Z,16.23
2018-11-03T04:12:12.267Z,17.27
2018-11-03T04:14:40.756Z,16.10
2018-11-03T04:17:09.216Z,16.13
2018-11-03T04:19:37.853Z,16.90
2018-11-03T04:22:06.397Z,16.27
2018-11-03T04:24:35.017Z,16.83
2018-11-03T04:27:03.505Z,16.67
2018-11-03T04:29:31.970Z,16.23
2018-11-03T04:32:00.447Z,15.33
2018-11-03T04:34:28.891Z,15.60
2018-11-03T04:36:57.362Z,15.73
2018-11-03T04:39:25.841Z,15.50
2018-11-03T04:41:54.283Z,15.87
2018-11-03T04:44:22.830Z,16.20
2018-11-03T04:46:51.658Z,16.27
2018-11-03T04:49:20.126Z,17.23
2018-11-03T04:51:48.594Z,17.90
2018-11-03T04:54:17.078Z,16.07
2018-11-03T04:56:45.720Z,16.73
2018-11-03T04:59:14.173Z,16.57
2018-11-03T05:01:42.626Z,17.30
2018-11-03T05:04:11.270Z,17.13
2018-11-03T05:06:39.718Z,17.33
2018-11-03T05:09:09.371Z,16.50
2018-11-03T05:11:39.227Z,16.90
2018-11-03T05:14:09.391Z,16.67
2018-11-03T05:16:38.117Z,15.33
2018-11-03T05:19:07.337Z,15.90
2018-11-03T05:21:35.901Z,16.60
2018-11-03T05:24:04.431Z,15.00
2018-11-03T05:26:32.857Z,16.00
2018-11-03T05:29:01.371Z,15.77
2018-11-03T05:31:29.980Z,16.03
2018-11-03T05:33:58.649Z,17.40
2018-11-03T05:36:27.265Z,16.00
2018-11-03T05:38:55.922Z,15.80
2018-11-03T05:41:24.395Z,16.10
2018-11-03T05:43:52.883Z,15.07
2018-11-03T05:46:21.538Z,16.03
2018-11-03T05:48:50.149Z,13.93
2018-11-03T05:51:18.598Z,15.03
2018-11-03T05:53:47.053Z,15.27
2018-11-03T05:56:15.478Z,15.33
2018-11-03T05:58:43.943Z,15.50
2018-11-03T06:01:12.578Z,15.10
2018-11-03T06:03:41.038Z,14.83
2018-11-03T06:06:09.479Z,13.60
2018-11-03T06:08:38.007Z,15.93
2018-11-03T06:11:06.771Z,15.07
2018-11-03T06:13:35.226Z,15.40
2018-11-03T06:16:03.658Z,15.13
2018-11-03T06:18:32.318Z,15.33
2018-11-03T06:21:00.886Z,14.17
2018-11-03T06:23:29.377Z,15.70
2018-11-03T06:25:58.007Z,15.77
2018-11-03T06:28:26.445Z,16.73
2018-11-03T06:30:54.911Z,17.17
2018-11-03T06:33:23.350Z,16.90
2018-11-03T06:35:51.818Z,17.87
2018-11-03T06:38:20.283Z,16.00
2018-11-03T06:40:48.942Z,17.00
2018-11-03T06:43:18.306Z,15.47
2018-11-03T06:45:46.775Z,16.87
2018-11-03T06:48:15.231Z,17.90
2018-11-03T06:50:43.878Z,16.43
2018-11-03T06:53:12.326Z,14.83
2018-11-03T06:55:41.437Z,15.30
2018-11-03T06:58:09.882Z,14.60
2018-11-03T07:00:38.447Z,16.33
2018-11-03T07:03:06.901Z,15.47
2018-11-03T07:05:36.913Z,15.57
2018-11-03T07:08:06.110Z,15.90
2018-11-03T07:10:34.606Z,16.10
2018-11-03T07:13:04.038Z,16.20
2018-11-03T07:15:32.752Z,15.33
2018-11-03T07:18:01.302Z,15.33
2018-11-03T07:20:29.843Z,16.13
2018-11-03T07:22:58.510Z,15.77
2018-11-03T07:25:27.213Z,16.27
2018-11-03T07:27:55.662Z,15.27
2018-11-03T07:30:24.186Z,16.47
2018-11-03T07:32:52.677Z,15.13
2018-11-03T07:35:21.137Z,15.13
2018-11-03T07:37:49.597Z,15.40
2018-11-03T07:40:18.046Z,15.27
2018-11-03T07:42:47.084Z,16.17
2018-11-03T07:45:15.533Z,16.60
2018-11-03T07:47:44.526Z,15.50
2018-11-03T07:50:13.438Z,15.47
2018-11-03T07:52:42.358Z,16.57
2018-11-03T07:55:12.290Z,17.13
2018-11-03T07:57:40.951Z,17.67
2018-11-03T08:00:11.583Z,17.13
2018-11-03T08:02:40.284Z,17.33
2018-11-03T08:05:09.962Z,17.00
2018-11-03T08:07:38.636Z,18.33
2018-11-03T08:10:09.590Z,17.63
2018-11-03T08:12:38.274Z,20.03
2018-11-03T08:15:07.678Z,20.30
2018-11-03T08:17:36.337Z,18.70
2018-11-03T08:20:05.630Z,18.50
2018-11-03T08:22:34.103Z,18.67
2018-11-03T08:25:02.615Z,19.77
2018-11-03T08:27:31.059Z,18.37
2018-11-03T08:30:00.096Z,16.97
2018-11-03T08:32:28.566Z,17.73
2018-11-03T08:34:57.006Z,16.67
2018-11-03T08:37:25.492Z,16.70
2018-11-03T08:39:53.990Z,18.40
2018-11-03T08:42:22.465Z,18.67
2018-11-03T08:44:52.108Z,18.07
2018-11-03T08:47:25.462Z,19.40
2018-11-03T08:49:53.914Z,17.90
2018-11-03T08:52:22.389Z,17.87
2018-11-03T08:54:50.903Z,16.77
2018-11-03T08:57:20.350Z,17.03
2018-11-03T08:59:50.394Z,17.87
2018-11-03T09:02:18.895Z,16.03
2018-11-03T09:04:47.362Z,16.40
2018-11-03T09:07:15.842Z,15.10
2018-11-03T09:09:44.512Z,18.20
2018-11-03T09:12:12.954Z,16.70
2018-11-03T09:14:41.513Z,18.03
2018-11-03T09:17:10.320Z,15.83
2018-11-03T09:19:38.803Z,17.00
2018-11-03T09:22:07.310Z,16.80
2018-11-03T09:24:35.945Z,17.17
2018-11-03T09:27:04.868Z,18.13
2018-11-03T09:29:33.487Z,16.30
2018-11-03T09:32:02.197Z,17.33
2018-11-03T09:34:30.870Z,16.17
2018-11-03T09:36:59.484Z,15.83
2018-11-03T09:39:28.644Z,15.77
2018-11-03T09:41:57.154Z,16.07
2018-11-03T09:44:25.647Z,17.47
2018-11-03T09:46:54.153Z,18.13
2018-11-03T09:49:22.627Z,18.33
2018-11-03T09:51:51.297Z,18.30
2018-11-03T09:54:19.808Z,18.93
2018-11-03T09:56:48.355Z,19.03
2018-11-03T09:59:16.914Z,18.97
2018-11-03T10:01:45.515Z,19.73
2018-11-03T10:04:14.004Z,18.03
2018-11-03T10:07:45.754Z,18.43
2018-11-03T10:10:15.798Z,18.27
2018-11-03T10:12:44.277Z,18.00
2018-11-03T10:15:14.294Z,17.13
2018-11-03T10:17:43.201Z,19.00
2018-11-03T10:20:12.077Z,18.47
2018-11-03T10:22:40.595Z,18.47
2018-11-03T10:25:12.026Z,17.93
2018-11-03T10:27:40.771Z,18.57
2018-11-03T10:30:11.539Z,20.03
2018-11-03T10:32:40.959Z,19.50
2018-11-03T10:35:10.909Z,19.13
2018-11-03T10:37:39.613Z,18.47
2018-11-03T10:40:11.501Z,18.87
2018-11-03T10:42:40.238Z,19.03
2018-11-03T10:45:10.707Z,19.10
2018-11-03T10:47:39.874Z,18.67
2018-11-03T10:50:11.290Z,18.37
2018-11-03T10:52:40.675Z,18.27
2018-11-03T10:55:10.369Z,18.20
2018-11-03T10:57:39.241Z,16.97
2018-11-03T11:00:15.735Z,17.13
2018-11-03T11:02:49.410Z,16.33
2018-11-03T11:05:23.138Z,18.17
2018-11-03T11:07:56.779Z,17.90
2018-11-03T11:10:30.478Z,16.57
2018-11-03T11:13:02.570Z,17.33
2018-11-03T11:15:32.865Z,17.47
2018-11-03T11:18:01.662Z,16.50
2018-11-03T11:20:30.135Z,16.00
2018-11-03T11:22:58.615Z,16.47
2018-11-03T11:25:27.303Z,17.60
2018-11-03T11:27:56.818Z,16.90
2018-11-03T11:30:27.640Z,16.47
2018-11-03T11:32:56.985Z,16.57
2018-11-03T11:35:25.448Z,16.83
2018-11-03T11:37:54.117Z,16.73
2018-11-03T11:40:22.583Z,15.13
2018-11-03T11:42:51.270Z,17.37
2018-11-03T11:45:19.910Z,17.93
2018-11-03T11:47:49.577Z,16.50
2018-11-03T11:50:18.194Z,15.43
2018-11-03T11:52:47.687Z,15.73
2018-11-03T11:55:16.147Z,15.50
2018-11-03T11:57:45.161Z,14.47
2018-11-03T12:00:13.665Z,14.30
2018-11-03T12:02:42.111Z,15.77
2018-11-03T12:05:10.774Z,14.00
2018-11-03T12:07:39.231Z,13.40
2018-11-03T12:10:07.789Z,14.73
2018-11-03T12:12:36.957Z,14.80
2018-11-03T12:15:06.693Z,13.83
2018-11-03T12:17:37.954Z,13.30
2018-11-03T12:20:06.768Z,14.80
2018-11-03T12:22:35.313Z,14.77
2018-11-03T12:25:03.963Z,14.90
2018-11-03T12:27:32.534Z,14.33
2018-11-03T12:30:01.038Z,13.30
2018-11-03T12:32:29.513Z,13.50
2018-11-03T12:34:58.144Z,13.13
2018-11-03T12:37:26.629Z,14.63
2018-11-03T12:39:55.120Z,13.13
2018-11-03T12:42:23.562Z,12.63
2018-11-03T12:44:52.033Z,13.83
2018-11-03T12:47:20.694Z,12.97
2018-11-03T12:49:49.231Z,11.77
2018-11-03T12:52:17.862Z,11.30
2018-11-03T12:54:46.325Z,12.67
2018-11-03T12:57:14.981Z,11.30
2018-11-03T12:59:43.413Z,12.07
2018-11-03T13:02:11.860Z,10.27
2018-11-03T13:04:40.415Z,10.13
2018-11-03T13:07:09.439Z,10.10
2018-11-03T13:09:37.994Z,10.47
2018-11-03T13:12:06.578Z,9.13
2018-11-03T13:14:35.181Z,10.77
2018-11-03T13:17:04.835Z,12.17
2018-11-03T13:19:33.296Z,11.30
2018-11-03T13:24:35.695Z,10.47
2018-11-03T13:27:05.155Z,10.50
2018-11-03T13:29:33.614Z,10.57
2018-11-03T13:32:02.095Z,10.33
2018-11-03T13:34:30.523Z,9.97
2018-11-03T13:36:58.997Z,12.40
2018-11-03T13:39:27.499Z,11.50
2018-11-03T13:41:56.122Z,11.20
2018-11-03T13:44:24.586Z,8.17
2018-11-03T13:46:53.050Z,5.67
2018-11-03T13:49:21.489Z,6.80
2018-11-03T13:51:50.004Z,8.80
2018-11-03T13:54:18.446Z,11.83
2018-11-03T13:56:46.931Z,13.00
2018-11-03T13:59:15.568Z,9.77
2018-11-03T14:01:44.857Z,10.17
2018-11-03T14:04:13.417Z,11.73
2018-11-03T14:06:41.873Z,9.33
2018-11-03T14:09:11.269Z,11.37
2018-11-03T14:11:39.931Z,12.10
2018-11-03T14:14:08.426Z,11.83
2018-11-03T14:16:36.906Z,12.40
2018-11-03T14:19:36.111Z,12.37
2018-11-03T14:22:04.930Z,12.73
2018-11-03T14:24:33.550Z,12.07
2018-11-03T14:27:02.700Z,11.73
2018-11-03T14:29:31.191Z,11.97
2018-11-03T14:31:59.850Z,11.67
2018-11-03T14:34:28.342Z,10.93
2018-11-03T14:36:56.822Z,9.50
2018-11-03T14:39:25.568Z,10.20
2018-11-03T14:41:54.609Z,9.63
2018-11-03T14:44:23.146Z,9.27
2018-11-03T14:46:52.011Z,9.43
2018-11-03T14:49:20.634Z,9.77
2018-11-03T14:51:49.091Z,8.23
2018-11-03T14:54:17.726Z,9.97
2018-11-03T14:56:48.055Z,9.37
2018-11-03T14:59:16.594Z,11.20
2018-11-03T15:01:45.490Z,10.80
2018-11-03T15:04:17.003Z,11.67
2018-11-03T15:06:45.474Z,10.47
2018-11-03T15:09:14.854Z,10.83
2018-11-03T15:11:43.298Z,12.07
2018-11-03T15:14:11.825Z,11.83
2018-11-03T15:16:42.909Z,11.77
2018-11-03T15:19:11.424Z,12.63
2018-11-03T15:21:40.985Z,12.93
2018-11-03T15:24:09.453Z,13.27
2018-11-03T15:26:37.964Z,12.97
2018-11-03T15:29:06.634Z,15.30
2018-11-03T15:31:40.715Z,13.13
2018-11-03T15:34:09.362Z,15.50
2018-11-03T15:36:37.872Z,14.13
2018-11-03T15:39:06.693Z,13.83
2018-11-03T15:41:35.206Z,14.30
2018-11-03T15:44:04.245Z,14.20
2018-11-03T15:46:32.779Z,14.20
2018-11-03T15:49:02.262Z,14.70
2018-11-03T15:51:30.744Z,15.83
2018-11-03T15:53:59.166Z,16.13
2018-11-03T15:56:27.605Z,20.43
2018-11-03T15:58:56.054Z,17.73
2018-11-03T16:01:24.523Z,16.43
2018-11-03T16:03:52.974Z,17.87
2018-11-03T16:06:21.422Z,17.20
2018-11-03T16:08:49.894Z,19.00
2018-11-03T16:11:18.353Z,17.80
2018-11-03T16:13:46.807Z,18.20
2018-11-03T16:16:15.904Z,18.87
2018-11-03T16:18:44.371Z,18.90
2018-11-03T16:21:12.818Z,19.33
2018-11-03T16:23:42.025Z,20.60
2018-11-03T16:26:10.499Z,20.97
2018-11-03T16:28:40.241Z,20.07
2018-11-03T16:31:08.778Z,21.07
2018-11-03T16:33:37.369Z,21.30
2018-11-03T16:36:06.157Z,23.73
2018-11-03T16:38:34.715Z,25.83
2018-11-03T16:41:03.085Z,23.57
2018-11-03T16:43:31.542Z,24.73
2018-11-03T16:45:59.996Z,24.13
2018-11-03T16:48:28.997Z,24.50
2018-11-03T16:50:57.490Z,24.10
2018-11-03T16:53:26.481Z,24.03
2018-11-03T16:55:54.942Z,24.10
2018-11-03T16:58:23.409Z,24.83
2018-11-03T17:00:52.061Z,25.77
2018-11-03T17:03:20.526Z,25.87
2018-11-03T17:05:49.001Z,26.53
2018-11-03T17:08:17.548Z,26.87
2018-11-03T17:10:46.030Z,24.50
2018-11-03T17:13:15.051Z,23.57
2018-11-03T17:15:44.072Z,26.37
2018-11-03T17:18:12.534Z,31.90
2018-11-03T17:20:41.035Z,30.57
2018-11-03T17:23:09.518Z,28.87
2018-11-03T17:25:38.037Z,30.63
2018-11-03T17:28:06.561Z,30.20
2018-11-03T17:30:35.032Z,30.73
2018-11-03T17:33:03.503Z,31.57
2018-11-03T17:35:31.970Z,30.63
2018-11-03T17:38:00.421Z,29.67
2018-11-03T17:40:29.238Z,29.47
2018-11-03T17:42:57.674Z,31.37
2018-11-03T17:45:26.938Z,31.60
2018-11-03T17:47:55.415Z,31.37
2018-11-03T17:50:23.874Z,32.30
2018-11-03T17:52:52.341Z,31.83
2018-11-03T17:55:20.830Z,31.60
2018-11-03T17:57:49.286Z,32.53
2018-11-03T18:00:17.968Z,32.03
2018-11-03T18:02:47.023Z,32.43
2018-11-03T18:05:16.314Z,33.00
2018-11-03T18:07:44.772Z,33.10
2018-11-03T18:10:13.593Z,33.20
2018-11-03T18:12:42.689Z,33.63
2018-11-03T18:15:12.396Z,31.10
2018-11-03T18:17:41.161Z,32.57
2018-11-03T18:20:10.510Z,31.87
2018-11-03T18:22:39.222Z,32.33
2018-11-03T18:25:08.177Z,31.87
2018-11-03T18:27:37.357Z,32.43
2018-11-03T18:30:07.330Z,34.60
2018-11-03T18:32:36.150Z,34.20
2018-11-03T18:35:04.954Z,33.77
2018-11-03T18:37:33.468Z,34.47
2018-11-03T18:40:02.064Z,34.87
2018-11-03T18:42:30.505Z,37.47
2018-11-03T18:44:58.942Z,33.30
2018-11-03T18:47:28.062Z,36.20
2018-11-03T18:49:56.519Z,34.50
2018-11-03T18:52:24.998Z,37.07
2018-11-03T18:54:53.478Z,34.33
2018-11-03T18:57:21.898Z,34.53
2018-11-03T18:59:50.353Z,36.10
2018-11-03T19:02:19.178Z,35.47
2018-11-03T19:04:47.762Z,35.97
2018-11-03T19:07:16.182Z,39.23
2018-11-03T19:09:44.651Z,41.10
2018-11-03T19:12:13.078Z,41.80
2018-11-03T19:14:41.522Z,41.63
2018-11-03T19:17:10.078Z,39.47
2018-11-03T19:19:38.616Z,38.50
2018-11-03T19:22:07.066Z,37.73
2018-11-03T19:24:35.545Z,38.80
2018-11-03T19:27:04.357Z,39.00
2018-11-03T19:29:32.873Z,36.93
2018-11-03T19:32:01.452Z,35.43
2018-11-03T19:34:30.100Z,36.30
2018-11-03T19:36:58.565Z,36.37
2018-11-03T19:39:27.016Z,37.13
2018-11-03T19:41:55.522Z,37.87
2018-11-03T19:44:24.000Z,38.67
2018-11-03T19:46:52.459Z,35.03
2018-11-03T19:49:20.942Z,37.70
2018-11-03T19:51:49.889Z,38.13
2018-11-03T19:54:18.426Z,38.87
2018-11-03T19:56:46.899Z,36.43
2018-11-03T19:59:15.339Z,36.37
2018-11-03T20:01:43.823Z,36.07
2018-11-03T20:04:12.258Z,39.87
2018-11-03T20:06:40.715Z,37.77
2018-11-03T20:09:09.166Z,35.73
2018-11-03T20:11:37.657Z,35.27
2018-11-03T20:14:06.150Z,35.37
2018-11-03T20:16:34.758Z,35.57
2018-11-03T20:19:03.207Z,36.03
2018-11-03T20:21:31.662Z,36.60
2018-11-03T20:24:00.130Z,37.90
2018-11-03T20:26:28.591Z,37.67
2018-11-03T20:28:57.018Z,36.53
2018-11-03T20:31:25.464Z,37.70
2018-11-03T20:33:53.904Z,37.47
2018-11-03T20:36:22.365Z,37.53
2018-11-03T20:38:50.807Z,35.37
2018-11-03T20:41:19.278Z,36.17
2018-11-03T20:43:47.761Z,37.10
2018-11-03T20:46:16.206Z,38.50
2018-11-03T20:48:44.633Z,38.30
2018-11-03T20:51:13.142Z,34.97
2018-11-03T20:53:41.853Z,36.17
2018-11-03T20:56:10.477Z,36.97
2018-11-03T20:58:38.965Z,35.20
2018-11-03T21:01:07.406Z,35.70
2018-11-03T21:03:35.877Z,34.27
2018-11-03T21:06:04.731Z,34.97
2018-11-03T21:08:33.196Z,34.40
2018-11-03T21:11:01.662Z,38.00
2018-11-03T21:13:30.113Z,40.73
2018-11-03T21:15:58.578Z,38.57
2018-11-03T21:18:27.666Z,37.37
2018-11-03T21:20:56.351Z,36.40
2018-11-03T21:23:24.985Z,35.97
2018-11-03T21:25:53.605Z,36.80
2018-11-03T21:28:22.074Z,37.73
2018-11-03T21:30:50.534Z,34.10
2018-11-03T21:33:19.072Z,34.63
2018-11-03T21:35:47.998Z,33.87
2018-11-03T21:38:16.514Z,34.63
2018-11-03T21:40:45.130Z,35.70
2018-11-03T21:43:13.592Z,35.70
2018-11-03T21:45:42.022Z,35.87
2018-11-03T21:48:10.522Z,33.63
2018-11-03T21:50:39.010Z,34.27
2018-11-03T21:53:07.434Z,33.90
2018-11-03T21:55:35.891Z,34.27
2018-11-03T21:58:04.674Z,35.20
2018-11-03T22:00:33.137Z,34.70
2018-11-03T22:03:01.644Z,37.73
2018-11-03T22:05:30.103Z,35.73
2018-11-03T22:07:58.538Z,36.07
2018-11-03T22:10:27.024Z,35.30
2018-11-03T22:12:55.473Z,36.73
2018-11-03T22:15:23.965Z,37.00
2018-11-03T22:17:52.989Z,37.00
2018-11-03T22:20:21.496Z,36.07
2018-11-03T22:22:49.951Z,37.17
2018-11-03T22:25:18.441Z,37.03
2018-11-03T22:27:46.945Z,34.17
2018-11-03T22:30:15.555Z,35.63
2018-11-03T22:32:44.016Z,34.90
2018-11-03T22:35:12.471Z,35.93
2018-11-03T22:37:40.926Z,35.67
2018-11-03T22:40:10.530Z,34.53
2018-11-03T22:42:39.183Z,34.67
2018-11-03T22:45:08.010Z,35.27
2018-11-03T22:47:36.797Z,32.93
2018-11-03T22:50:05.545Z,34.57
2018-11-03T22:52:34.086Z,34.67
2018-11-03T22:55:02.711Z,34.67
2018-11-03T22:57:31.171Z,34.83
2018-11-03T22:59:59.634Z,34.03
2018-11-03T23:02:28.138Z,33.97
2018-11-03T23:04:56.585Z,32.80
2018-11-03T23:07:25.057Z,32.27
2018-11-03T23:09:53.542Z,31.47
2018-11-03T23:12:22.003Z,32.40
2018-11-03T23:14:50.657Z,32.83
2018-11-03T23:17:19.106Z,31.63
2018-11-03T23:19:47.611Z,33.47
2018-11-03T23:22:16.195Z,32.67
2018-11-03T23:24:44.800Z,35.13
2018-11-03T23:27:13.238Z,33.27
2018-11-03T23:29:41.753Z,35.23
2018-11-03T23:32:10.363Z,31.97
2018-11-03T23:34:38.841Z,32.10
2018-11-03T23:37:07.602Z,33.20
2018-11-03T23:39:36.079Z,31.13
2018-11-03T23:42:04.614Z,32.37
2018-11-03T23:44:33.086Z,32.90
2018-11-03T23:47:01.535Z,31.90
2018-11-03T23:49:30.049Z,32.23
2018-11-03T23:51:58.478Z,32.40
2018-11-03T23:54:26.902Z,31.57
2018-11-03T23:56:55.710Z,30.63
2018-11-03T23:59:24.244Z,31.40
